sensor_id;sensor_type;location;lat;lon;timestamp;P1;durP1;ratioP1;P2;durP2;ratioP2
35257;SDS011;21385;50.878;8.050;2022-12-18T00:01:04;3.70;;;2.93;;
35257;SDS011;21385;50.878;8.050;2022-12-18T00:03:38;2.03;;;1.70;;
35257;SDS011;21385;50.878;8.050;2022-12-18T00:06:03;2.33;;;1.70;;
35257;SDS011;21385;50.878;8.050;2022-12-18T00:08:29;0.53;;;0.53;;
35257;SDS011;21385;50.878;8.050;2022-12-18T00:10:54;1.23;;;1.23;;
35257;SDS011;21385;50.878;8.050;2022-12-18T00:13:20;2.17;;;2.07;;
35257;SDS011;21385;50.878;8.050;2022-12-18T00:15:46;2.93;;;1.77;;
35257;SDS011;21385;50.878;8.050;2022-12-18T00:18:11;1.83;;;1.73;;
35257;SDS011;21385;50.878;8.050;2022-12-18T00:20:37;2.13;;;1.97;;
35257;SDS011;21385;50.878;8.050;2022-12-18T00:23:04;1.93;;;1.83;;
35257;SDS011;21385;50.878;8.050;2022-12-18T00:25:32;1.73;;;1.63;;
35257;SDS011;21385;50.878;8.050;2022-12-18T00:27:59;1.77;;;1.67;;
35257;SDS011;21385;50.878;8.050;2022-12-18T00:30:25;1.27;;;1.27;;
35257;SDS011;21385;50.878;8.050;2022-12-18T00:32:50;4.03;;;3.63;;
35257;SDS011;21385;50.878;8.050;2022-12-18T00:35:16;2.73;;;2.53;;
35257;SDS011;21385;50.878;8.050;2022-12-18T00:37:42;0.60;;;0.60;;
35257;SDS011;21385;50.878;8.050;2022-12-18T00:40:07;2.80;;;2.67;;
35257;SDS011;21385;50.878;8.050;2022-12-18T00:42:33;3.40;;;3.20;;
35257;SDS011;21385;50.878;8.050;2022-12-18T00:45:18;2.03;;;1.77;;
35257;SDS011;21385;50.878;8.050;2022-12-18T00:47:43;1.03;;;1.03;;
35257;SDS011;21385;50.878;8.050;2022-12-18T00:50:09;1.87;;;1.77;;
35257;SDS011;21385;50.878;8.050;2022-12-18T00:52:35;3.63;;;3.43;;
35257;SDS011;21385;50.878;8.050;2022-12-18T00:55:00;1.83;;;1.73;;
35257;SDS011;21385;50.878;8.050;2022-12-18T00:57:26;2.27;;;2.07;;
35257;SDS011;21385;50.878;8.050;2022-12-18T00:59:51;2.17;;;2.07;;
35257;SDS011;21385;50.878;8.050;2022-12-18T01:02:17;1.07;;;1.07;;
35257;SDS011;21385;50.878;8.050;2022-12-18T01:04:43;1.37;;;1.27;;
35257;SDS011;21385;50.878;8.050;2022-12-18T01:07:08;1.63;;;1.53;;
35257;SDS011;21385;50.878;8.050;2022-12-18T01:09:34;1.90;;;1.80;;
35257;SDS011;21385;50.878;8.050;2022-12-18T01:11:59;2.27;;;1.37;;
35257;SDS011;21385;50.878;8.050;2022-12-18T01:14:25;2.33;;;2.23;;
35257;SDS011;21385;50.878;8.050;2022-12-18T01:16:51;1.57;;;1.47;;
35257;SDS011;21385;50.878;8.050;2022-12-18T01:19:16;1.73;;;1.63;;
35257;SDS011;21385;50.878;8.050;2022-12-18T01:21:42;0.43;;;0.43;;
35257;SDS011;21385;50.878;8.050;2022-12-18T01:24:10;1.10;;;1.10;;
35257;SDS011;21385;50.878;8.050;2022-12-18T01:26:37;1.13;;;1.13;;
35257;SDS011;21385;50.878;8.050;2022-12-18T01:29:02;1.00;;;1.00;;
35257;SDS011;21385;50.878;8.050;2022-12-18T01:31:29;0.80;;;0.80;;
35257;SDS011;21385;50.878;8.050;2022-12-18T01:33:58;0.30;;;0.30;;
35257;SDS011;21385;50.878;8.050;2022-12-18T01:36:28;0.93;;;0.93;;
35257;SDS011;21385;50.878;8.050;2022-12-18T01:38:55;2.33;;;1.80;;
35257;SDS011;21385;50.878;8.050;2022-12-18T01:41:22;1.23;;;1.17;;
35257;SDS011;21385;50.878;8.050;2022-12-18T01:43:55;0.43;;;0.43;;
35257;SDS011;21385;50.878;8.050;2022-12-18T01:46:25;1.47;;;1.40;;
35257;SDS011;21385;50.878;8.050;2022-12-18T01:48:53;1.87;;;1.20;;
35257;SDS011;21385;50.878;8.050;2022-12-18T01:51:22;1.40;;;1.33;;
35257;SDS011;21385;50.878;8.050;2022-12-18T01:53:48;0.20;;;0.20;;
35257;SDS011;21385;50.878;8.050;2022-12-18T01:56:15;2.20;;;2.10;;
35257;SDS011;21385;50.878;8.050;2022-12-18T01:58:48;0.60;;;0.60;;
35257;SDS011;21385;50.878;8.050;2022-12-18T02:01:23;1.13;;;1.13;;
35257;SDS011;21385;50.878;8.050;2022-12-18T02:03:50;1.50;;;1.43;;
35257;SDS011;21385;50.878;8.050;2022-12-18T02:06:38;2.53;;;2.33;;
35257;SDS011;21385;50.878;8.050;2022-12-18T02:09:12;0.57;;;0.57;;
35257;SDS011;21385;50.878;8.050;2022-12-18T02:14:17;1.53;;;1.43;;
35257;SDS011;21385;50.878;8.050;2022-12-18T02:17:04;0.97;;;0.97;;
35257;SDS011;21385;50.878;8.050;2022-12-18T02:19:46;4.93;;;2.05;;
35257;SDS011;21385;50.878;8.050;2022-12-18T02:22:20;1.20;;;1.20;;
35257;SDS011;21385;50.878;8.050;2022-12-18T02:27:48;0.23;;;0.23;;
35257;SDS011;21385;50.878;8.050;2022-12-18T02:30:15;0.30;;;0.30;;
35257;SDS011;21385;50.878;8.050;2022-12-18T02:32:43;0.90;;;0.90;;
35257;SDS011;21385;50.878;8.050;2022-12-18T02:35:17;1.73;;;1.63;;
35257;SDS011;21385;50.878;8.050;2022-12-18T02:37:48;6.60;;;2.40;;
35257;SDS011;21385;50.878;8.050;2022-12-18T02:40:13;1.23;;;1.13;;
35257;SDS011;21385;50.878;8.050;2022-12-18T02:42:42;0.70;;;0.70;;
35257;SDS011;21385;50.878;8.050;2022-12-18T02:45:07;4.83;;;2.17;;
35257;SDS011;21385;50.878;8.050;2022-12-18T02:47:35;1.50;;;0.87;;
35257;SDS011;21385;50.878;8.050;2022-12-18T02:50:21;5.87;;;1.60;;
35257;SDS011;21385;50.878;8.050;2022-12-18T02:58:29;0.80;;;0.60;;
35257;SDS011;21385;50.878;8.050;2022-12-18T03:01:03;0.87;;;0.87;;
35257;SDS011;21385;50.878;8.050;2022-12-18T03:03:46;0.90;;;0.90;;
35257;SDS011;21385;50.878;8.050;2022-12-18T03:06:24;0.90;;;0.90;;
35257;SDS011;21385;50.878;8.050;2022-12-18T03:09:18;0.83;;;0.83;;
35257;SDS011;21385;50.878;8.050;2022-12-18T03:11:48;0.40;;;0.40;;
35257;SDS011;21385;50.878;8.050;2022-12-18T03:14:45;2.07;;;0.80;;
35257;SDS011;21385;50.878;8.050;2022-12-18T03:17:17;0.73;;;0.73;;
35257;SDS011;21385;50.878;8.050;2022-12-18T03:19:47;1.35;;;1.30;;
35257;SDS011;21385;50.878;8.050;2022-12-18T03:22:14;5.83;;;2.23;;
35257;SDS011;21385;50.878;8.050;2022-12-18T03:24:41;0.83;;;0.83;;
35257;SDS011;21385;50.878;8.050;2022-12-18T03:27:09;1.63;;;1.53;;
35257;SDS011;21385;50.878;8.050;2022-12-18T03:29:40;0.73;;;0.53;;
35257;SDS011;21385;50.878;8.050;2022-12-18T03:32:12;0.77;;;0.77;;
35257;SDS011;21385;50.878;8.050;2022-12-18T03:34:51;1.27;;;1.17;;
35257;SDS011;21385;50.878;8.050;2022-12-18T03:37:18;4.80;;;1.43;;
35257;SDS011;21385;50.878;8.050;2022-12-18T03:39:44;2.30;;;2.17;;
35257;SDS011;21385;50.878;8.050;2022-12-18T03:44:56;1.03;;;1.03;;
35257;SDS011;21385;50.878;8.050;2022-12-18T03:47:39;1.10;;;1.07;;
35257;SDS011;21385;50.878;8.050;2022-12-18T03:52:57;0.60;;;0.60;;
35257;SDS011;21385;50.878;8.050;2022-12-18T03:55:34;1.17;;;1.17;;
35257;SDS011;21385;50.878;8.050;2022-12-18T03:58:01;1.20;;;1.20;;
35257;SDS011;21385;50.878;8.050;2022-12-18T04:00:29;0.97;;;0.97;;
35257;SDS011;21385;50.878;8.050;2022-12-18T04:02:56;1.67;;;1.57;;
35257;SDS011;21385;50.878;8.050;2022-12-18T04:05:25;0.77;;;0.77;;
35257;SDS011;21385;50.878;8.050;2022-12-18T04:07:53;1.80;;;1.70;;
35257;SDS011;21385;50.878;8.050;2022-12-18T04:10:21;0.63;;;0.63;;
35257;SDS011;21385;50.878;8.050;2022-12-18T04:12:46;0.40;;;0.40;;
35257;SDS011;21385;50.878;8.050;2022-12-18T04:15:12;0.67;;;0.67;;
35257;SDS011;21385;50.878;8.050;2022-12-18T04:17:38;1.60;;;1.50;;
35257;SDS011;21385;50.878;8.050;2022-12-18T04:20:11;1.97;;;1.80;;
35257;SDS011;21385;50.878;8.050;2022-12-18T04:22:37;4.93;;;2.37;;
35257;SDS011;21385;50.878;8.050;2022-12-18T04:25:02;15.07;;;2.07;;
35257;SDS011;21385;50.878;8.050;2022-12-18T04:27:28;1.60;;;1.50;;
35257;SDS011;21385;50.878;8.050;2022-12-18T04:29:54;0.77;;;0.77;;
35257;SDS011;21385;50.878;8.050;2022-12-18T04:32:19;1.40;;;1.37;;
35257;SDS011;21385;50.878;8.050;2022-12-18T04:34:45;0.57;;;0.57;;
35257;SDS011;21385;50.878;8.050;2022-12-18T04:37:10;0.40;;;0.40;;
35257;SDS011;21385;50.878;8.050;2022-12-18T04:39:36;1.33;;;1.23;;
35257;SDS011;21385;50.878;8.050;2022-12-18T04:42:02;1.67;;;1.33;;
35257;SDS011;21385;50.878;8.050;2022-12-18T04:44:27;1.30;;;1.30;;
35257;SDS011;21385;50.878;8.050;2022-12-18T04:46:53;1.80;;;1.20;;
35257;SDS011;21385;50.878;8.050;2022-12-18T04:49:18;0.47;;;0.47;;
35257;SDS011;21385;50.878;8.050;2022-12-18T04:51:44;2.67;;;2.30;;
35257;SDS011;21385;50.878;8.050;2022-12-18T04:54:10;2.20;;;2.10;;
35257;SDS011;21385;50.878;8.050;2022-12-18T04:56:35;0.40;;;0.40;;
35257;SDS011;21385;50.878;8.050;2022-12-18T04:59:01;1.03;;;1.03;;
35257;SDS011;21385;50.878;8.050;2022-12-18T05:01:26;1.67;;;1.00;;
35257;SDS011;21385;50.878;8.050;2022-12-18T05:03:52;1.97;;;1.87;;
35257;SDS011;21385;50.878;8.050;2022-12-18T05:06:17;1.57;;;1.47;;
35257;SDS011;21385;50.878;8.050;2022-12-18T05:08:43;0.57;;;0.57;;
35257;SDS011;21385;50.878;8.050;2022-12-18T05:11:10;1.87;;;1.77;;
35257;SDS011;21385;50.878;8.050;2022-12-18T05:13:38;3.83;;;2.20;;
35257;SDS011;21385;50.878;8.050;2022-12-18T05:16:04;1.97;;;1.87;;
35257;SDS011;21385;50.878;8.050;2022-12-18T05:18:30;1.27;;;1.13;;
35257;SDS011;21385;50.878;8.050;2022-12-18T05:20:56;2.43;;;0.87;;
35257;SDS011;21385;50.878;8.050;2022-12-18T05:23:22;0.40;;;0.40;;
35257;SDS011;21385;50.878;8.050;2022-12-18T05:25:52;1.57;;;1.53;;
35257;SDS011;21385;50.878;8.050;2022-12-18T05:28:19;20.75;;;2.60;;
35257;SDS011;21385;50.878;8.050;2022-12-18T05:30:49;1.70;;;1.60;;
35257;SDS011;21385;50.878;8.050;2022-12-18T05:33:15;1.00;;;1.00;;
35257;SDS011;21385;50.878;8.050;2022-12-18T05:35:41;1.33;;;1.33;;
35257;SDS011;21385;50.878;8.050;2022-12-18T05:38:07;1.07;;;1.07;;
35257;SDS011;21385;50.878;8.050;2022-12-18T05:40:33;0.93;;;0.93;;
35257;SDS011;21385;50.878;8.050;2022-12-18T05:42:58;0.97;;;0.87;;
35257;SDS011;21385;50.878;8.050;2022-12-18T05:45:24;3.50;;;3.20;;
35257;SDS011;21385;50.878;8.050;2022-12-18T05:47:49;0.80;;;0.80;;
35257;SDS011;21385;50.878;8.050;2022-12-18T05:50:15;0.57;;;0.57;;
35257;SDS011;21385;50.878;8.050;2022-12-18T05:52:41;1.97;;;1.87;;
35257;SDS011;21385;50.878;8.050;2022-12-18T05:55:06;1.53;;;1.43;;
35257;SDS011;21385;50.878;8.050;2022-12-18T05:57:32;2.83;;;2.37;;
35257;SDS011;21385;50.878;8.050;2022-12-18T05:59:57;1.23;;;1.20;;
35257;SDS011;21385;50.878;8.050;2022-12-18T06:02:23;1.40;;;1.20;;
35257;SDS011;21385;50.878;8.050;2022-12-18T06:04:49;2.20;;;2.00;;
35257;SDS011;21385;50.878;8.050;2022-12-18T06:07:14;0.93;;;0.93;;
35257;SDS011;21385;50.878;8.050;2022-12-18T06:09:40;2.00;;;1.90;;
35257;SDS011;21385;50.878;8.050;2022-12-18T06:12:05;2.63;;;1.70;;
35257;SDS011;21385;50.878;8.050;2022-12-18T06:14:31;3.63;;;1.73;;
35257;SDS011;21385;50.878;8.050;2022-12-18T06:16:57;2.40;;;2.20;;
35257;SDS011;21385;50.878;8.050;2022-12-18T06:19:22;1.98;;;1.85;;
35257;SDS011;21385;50.878;8.050;2022-12-18T06:21:48;5.40;;;1.80;;
35257;SDS011;21385;50.878;8.050;2022-12-18T06:24:14;1.67;;;1.50;;
35257;SDS011;21385;50.878;8.050;2022-12-18T06:26:40;1.07;;;1.00;;
35257;SDS011;21385;50.878;8.050;2022-12-18T06:29:06;2.47;;;2.27;;
35257;SDS011;21385;50.878;8.050;2022-12-18T06:31:31;0.80;;;0.80;;
35257;SDS011;21385;50.878;8.050;2022-12-18T06:33:57;4.43;;;2.00;;
35257;SDS011;21385;50.878;8.050;2022-12-18T06:36:23;1.33;;;1.23;;
35257;SDS011;21385;50.878;8.050;2022-12-18T06:38:48;0.70;;;0.70;;
35257;SDS011;21385;50.878;8.050;2022-12-18T06:41:16;0.83;;;0.83;;
35257;SDS011;21385;50.878;8.050;2022-12-18T06:43:43;3.20;;;2.27;;
35257;SDS011;21385;50.878;8.050;2022-12-18T06:46:12;0.73;;;0.73;;
35257;SDS011;21385;50.878;8.050;2022-12-18T06:48:38;4.03;;;3.72;;
35257;SDS011;21385;50.878;8.050;2022-12-18T06:51:04;2.57;;;1.83;;
35257;SDS011;21385;50.878;8.050;2022-12-18T06:53:29;1.67;;;1.67;;
35257;SDS011;21385;50.878;8.050;2022-12-18T06:56:03;0.53;;;0.53;;
35257;SDS011;21385;50.878;8.050;2022-12-18T06:58:30;0.90;;;0.90;;
35257;SDS011;21385;50.878;8.050;2022-12-18T07:01:02;2.33;;;2.10;;
35257;SDS011;21385;50.878;8.050;2022-12-18T07:03:29;3.97;;;2.60;;
35257;SDS011;21385;50.878;8.050;2022-12-18T07:05:55;1.48;;;1.38;;
35257;SDS011;21385;50.878;8.050;2022-12-18T07:08:21;1.55;;;1.45;;
35257;SDS011;21385;50.878;8.050;2022-12-18T07:10:46;0.60;;;0.60;;
35257;SDS011;21385;50.878;8.050;2022-12-18T07:13:14;8.17;;;1.97;;
35257;SDS011;21385;50.878;8.050;2022-12-18T07:15:43;1.70;;;1.60;;
35257;SDS011;21385;50.878;8.050;2022-12-18T07:18:09;1.27;;;1.27;;
35257;SDS011;21385;50.878;8.050;2022-12-18T07:20:34;2.10;;;1.83;;
35257;SDS011;21385;50.878;8.050;2022-12-18T07:23:05;1.40;;;1.30;;
35257;SDS011;21385;50.878;8.050;2022-12-18T07:25:36;1.63;;;1.53;;
35257;SDS011;21385;50.878;8.050;2022-12-18T07:28:03;1.38;;;1.27;;
35257;SDS011;21385;50.878;8.050;2022-12-18T07:30:29;1.50;;;1.40;;
35257;SDS011;21385;50.878;8.050;2022-12-18T07:32:55;4.55;;;1.23;;
35257;SDS011;21385;50.878;8.050;2022-12-18T07:35:20;1.50;;;1.33;;
35257;SDS011;21385;50.878;8.050;2022-12-18T07:37:46;1.45;;;1.35;;
35257;SDS011;21385;50.878;8.050;2022-12-18T07:40:11;3.47;;;1.20;;
35257;SDS011;21385;50.878;8.050;2022-12-18T07:42:37;1.87;;;0.83;;
35257;SDS011;21385;50.878;8.050;2022-12-18T07:45:03;1.15;;;1.13;;
35257;SDS011;21385;50.878;8.050;2022-12-18T07:47:35;0.60;;;0.60;;
35257;SDS011;21385;50.878;8.050;2022-12-18T07:50:01;2.43;;;1.63;;
35257;SDS011;21385;50.878;8.050;2022-12-18T07:52:28;1.93;;;1.83;;
35257;SDS011;21385;50.878;8.050;2022-12-18T07:54:54;1.52;;;1.42;;
35257;SDS011;21385;50.878;8.050;2022-12-18T07:57:20;1.95;;;1.83;;
35257;SDS011;21385;50.878;8.050;2022-12-18T07:59:46;2.38;;;2.15;;
35257;SDS011;21385;50.878;8.050;2022-12-18T08:02:11;1.88;;;1.35;;
35257;SDS011;21385;50.878;8.050;2022-12-18T08:04:37;7.00;;;1.60;;
35257;SDS011;21385;50.878;8.050;2022-12-18T08:07:02;2.10;;;1.90;;
35257;SDS011;21385;50.878;8.050;2022-12-18T08:09:28;1.33;;;1.23;;
35257;SDS011;21385;50.878;8.050;2022-12-18T08:11:53;0.60;;;0.60;;
35257;SDS011;21385;50.878;8.050;2022-12-18T08:14:19;0.68;;;0.68;;
35257;SDS011;21385;50.878;8.050;2022-12-18T08:16:45;1.50;;;1.40;;
35257;SDS011;21385;50.878;8.050;2022-12-18T08:19:10;1.02;;;1.02;;
35257;SDS011;21385;50.878;8.050;2022-12-18T08:21:36;1.77;;;1.67;;
35257;SDS011;21385;50.878;8.050;2022-12-18T08:24:02;0.68;;;0.68;;
35257;SDS011;21385;50.878;8.050;2022-12-18T08:26:29;1.35;;;1.33;;
35257;SDS011;21385;50.878;8.050;2022-12-18T08:28:56;0.68;;;0.68;;
35257;SDS011;21385;50.878;8.050;2022-12-18T08:31:24;1.52;;;1.50;;
35257;SDS011;21385;50.878;8.050;2022-12-18T08:33:51;2.05;;;1.95;;
35257;SDS011;21385;50.878;8.050;2022-12-18T08:36:18;1.85;;;1.40;;
35257;SDS011;21385;50.878;8.050;2022-12-18T08:38:44;1.45;;;1.35;;
35257;SDS011;21385;50.878;8.050;2022-12-18T08:41:11;0.57;;;0.57;;
35257;SDS011;21385;50.878;8.050;2022-12-18T08:43:38;3.15;;;1.52;;
35257;SDS011;21385;50.878;8.050;2022-12-18T08:46:23;1.27;;;1.23;;
35257;SDS011;21385;50.878;8.050;2022-12-18T08:48:51;1.73;;;1.63;;
35257;SDS011;21385;50.878;8.050;2022-12-18T08:51:17;4.53;;;3.00;;
35257;SDS011;21385;50.878;8.050;2022-12-18T08:53:44;2.30;;;2.10;;
35257;SDS011;21385;50.878;8.050;2022-12-18T08:56:10;1.20;;;1.20;;
35257;SDS011;21385;50.878;8.050;2022-12-18T08:58:36;5.70;;;1.58;;
35257;SDS011;21385;50.878;8.050;2022-12-18T09:01:02;0.98;;;0.98;;
35257;SDS011;21385;50.878;8.050;2022-12-18T09:03:29;0.93;;;0.93;;
35257;SDS011;21385;50.878;8.050;2022-12-18T09:05:55;2.47;;;2.38;;
35257;SDS011;21385;50.878;8.050;2022-12-18T09:08:21;1.33;;;1.25;;
35257;SDS011;21385;50.878;8.050;2022-12-18T09:10:47;1.52;;;1.42;;
35257;SDS011;21385;50.878;8.050;2022-12-18T09:13:14;2.05;;;1.90;;
35257;SDS011;21385;50.878;8.050;2022-12-18T09:15:44;0.75;;;0.75;;
35257;SDS011;21385;50.878;8.050;2022-12-18T09:18:12;1.65;;;1.55;;
35257;SDS011;21385;50.878;8.050;2022-12-18T09:20:38;1.25;;;1.23;;
35257;SDS011;21385;50.878;8.050;2022-12-18T09:23:05;2.30;;;2.08;;
35257;SDS011;21385;50.878;8.050;2022-12-18T09:25:31;2.38;;;1.85;;
35257;SDS011;21385;50.878;8.050;2022-12-18T09:28:05;3.13;;;2.50;;
35257;SDS011;21385;50.878;8.050;2022-12-18T09:30:34;3.17;;;1.88;;
35257;SDS011;21385;50.878;8.050;2022-12-18T09:33:03;11.55;;;2.03;;
35257;SDS011;21385;50.878;8.050;2022-12-18T09:35:28;1.83;;;1.73;;
35257;SDS011;21385;50.878;8.050;2022-12-18T09:37:54;2.22;;;2.03;;
35257;SDS011;21385;50.878;8.050;2022-12-18T09:40:21;1.70;;;1.60;;
35257;SDS011;21385;50.878;8.050;2022-12-18T09:42:57;1.92;;;1.55;;
35257;SDS011;21385;50.878;8.050;2022-12-18T09:45:25;2.17;;;1.40;;
35257;SDS011;21385;50.878;8.050;2022-12-18T09:47:51;1.92;;;1.83;;
35257;SDS011;21385;50.878;8.050;2022-12-18T09:50:24;5.30;;;2.20;;
35257;SDS011;21385;50.878;8.050;2022-12-18T09:52:55;1.15;;;1.15;;
35257;SDS011;21385;50.878;8.050;2022-12-18T09:55:42;4.63;;;2.17;;
35257;SDS011;21385;50.878;8.050;2022-12-18T09:58:19;3.55;;;2.25;;
35257;SDS011;21385;50.878;8.050;2022-12-18T10:01:00;1.42;;;1.33;;
35257;SDS011;21385;50.878;8.050;2022-12-18T10:03:26;14.95;;;2.58;;
35257;SDS011;21385;50.878;8.050;2022-12-18T10:05:56;1.23;;;1.20;;
35257;SDS011;21385;50.878;8.050;2022-12-18T10:08:37;1.27;;;1.17;;
35257;SDS011;21385;50.878;8.050;2022-12-18T10:16:34;1.25;;;1.17;;
35257;SDS011;21385;50.878;8.050;2022-12-18T10:27:23;1.20;;;1.13;;
35257;SDS011;21385;50.878;8.050;2022-12-18T10:29:51;1.13;;;1.13;;
35257;SDS011;21385;50.878;8.050;2022-12-18T10:32:21;1.77;;;1.67;;
35257;SDS011;21385;50.878;8.050;2022-12-18T10:34:50;4.30;;;0.60;;
35257;SDS011;21385;50.878;8.050;2022-12-18T10:37:19;1.90;;;1.30;;
35257;SDS011;21385;50.878;8.050;2022-12-18T10:40:04;0.98;;;0.98;;
35257;SDS011;21385;50.878;8.050;2022-12-18T10:42:34;3.92;;;2.30;;
35257;SDS011;21385;50.878;8.050;2022-12-18T10:45:13;1.33;;;1.20;;
35257;SDS011;21385;50.878;8.050;2022-12-18T10:47:48;5.72;;;1.67;;
35257;SDS011;21385;50.878;8.050;2022-12-18T10:50:31;2.85;;;2.65;;
35257;SDS011;21385;50.878;8.050;2022-12-18T10:52:59;1.90;;;1.38;;
35257;SDS011;21385;50.878;8.050;2022-12-18T10:55:31;1.35;;;1.30;;
35257;SDS011;21385;50.878;8.050;2022-12-18T11:01:02;2.80;;;2.30;;
35257;SDS011;21385;50.878;8.050;2022-12-18T11:03:40;2.22;;;2.00;;
35257;SDS011;21385;50.878;8.050;2022-12-18T11:06:32;1.73;;;1.63;;
35257;SDS011;21385;50.878;8.050;2022-12-18T11:11:27;1.42;;;1.33;;
35257;SDS011;21385;50.878;8.050;2022-12-18T11:14:18;1.73;;;1.63;;
35257;SDS011;21385;50.878;8.050;2022-12-18T11:16:48;1.42;;;1.33;;
35257;SDS011;21385;50.878;8.050;2022-12-18T11:22:01;1.20;;;1.17;;
35257;SDS011;21385;50.878;8.050;2022-12-18T11:24:42;1.20;;;1.13;;
35257;SDS011;21385;50.878;8.050;2022-12-18T11:27:13;2.35;;;2.15;;
35257;SDS011;21385;50.878;8.050;2022-12-18T11:29:42;2.17;;;2.05;;
35257;SDS011;21385;50.878;8.050;2022-12-18T11:34:44;8.77;;;2.65;;
35257;SDS011;21385;50.878;8.050;2022-12-18T11:37:13;9.80;;;2.03;;
35257;SDS011;21385;50.878;8.050;2022-12-18T11:39:49;2.85;;;2.65;;
35257;SDS011;21385;50.878;8.050;2022-12-18T11:42:24;3.33;;;3.13;;
35257;SDS011;21385;50.878;8.050;2022-12-18T11:45:15;1.23;;;1.20;;
35257;SDS011;21385;50.878;8.050;2022-12-18T11:48:17;2.05;;;1.65;;
35257;SDS011;21385;50.878;8.050;2022-12-18T11:50:55;1.60;;;1.45;;
35257;SDS011;21385;50.878;8.050;2022-12-18T11:53:23;2.08;;;1.92;;
35257;SDS011;21385;50.878;8.050;2022-12-18T12:01:21;2.28;;;2.15;;
35257;SDS011;21385;50.878;8.050;2022-12-18T12:15:47;1.73;;;1.60;;
35257;SDS011;21385;50.878;8.050;2022-12-18T12:21:24;0.93;;;0.90;;
35257;SDS011;21385;50.878;8.050;2022-12-18T12:24:41;3.28;;;2.25;;
35257;SDS011;21385;50.878;8.050;2022-12-18T12:33:26;2.88;;;2.47;;
35257;SDS011;21385;50.878;8.050;2022-12-18T12:39:10;8.18;;;3.08;;
35257;SDS011;21385;50.878;8.050;2022-12-18T12:41:39;1.20;;;0.93;;
35257;SDS011;21385;50.878;8.050;2022-12-18T12:44:27;5.50;;;2.42;;
35257;SDS011;21385;50.878;8.050;2022-12-18T12:46:56;2.38;;;2.17;;
35257;SDS011;21385;50.878;8.050;2022-12-18T12:49:26;1.73;;;1.65;;
35257;SDS011;21385;50.878;8.050;2022-12-18T12:52:16;3.60;;;2.00;;
35257;SDS011;21385;50.878;8.050;2022-12-18T12:54:42;2.83;;;2.63;;
35257;SDS011;21385;50.878;8.050;2022-12-18T12:57:11;3.53;;;2.67;;
35257;SDS011;21385;50.878;8.050;2022-12-18T13:07:55;3.72;;;2.80;;
35257;SDS011;21385;50.878;8.050;2022-12-18T13:15:47;7.88;;;2.55;;
35257;SDS011;21385;50.878;8.050;2022-12-18T13:18:22;2.38;;;2.28;;
35257;SDS011;21385;50.878;8.050;2022-12-18T13:25:49;3.22;;;2.92;;
35257;SDS011;21385;50.878;8.050;2022-12-18T13:38:45;4.72;;;3.92;;
35257;SDS011;21385;50.878;8.050;2022-12-18T13:43:46;1.80;;;1.70;;
35257;SDS011;21385;50.878;8.050;2022-12-18T13:46:43;5.65;;;3.63;;
35257;SDS011;21385;50.878;8.050;2022-12-18T13:51:42;6.03;;;3.75;;
35257;SDS011;21385;50.878;8.050;2022-12-18T13:56:44;3.00;;;2.78;;
35257;SDS011;21385;50.878;8.050;2022-12-18T13:59:25;2.75;;;2.58;;
35257;SDS011;21385;50.878;8.050;2022-12-18T14:02:04;2.25;;;2.13;;
35257;SDS011;21385;50.878;8.050;2022-12-18T14:04:41;3.72;;;2.80;;
35257;SDS011;21385;50.878;8.050;2022-12-18T14:09:54;2.67;;;2.47;;
35257;SDS011;21385;50.878;8.050;2022-12-18T14:12:26;2.15;;;1.95;;
35257;SDS011;21385;50.878;8.050;2022-12-18T14:15:31;3.33;;;3.03;;
35257;SDS011;21385;50.878;8.050;2022-12-18T14:17:59;2.58;;;2.47;;
35257;SDS011;21385;50.878;8.050;2022-12-18T14:20:34;4.22;;;2.58;;
35257;SDS011;21385;50.878;8.050;2022-12-18T14:23:00;3.20;;;2.90;;
35257;SDS011;21385;50.878;8.050;2022-12-18T14:25:29;1.80;;;1.70;;
35257;SDS011;21385;50.878;8.050;2022-12-18T14:33:12;2.97;;;2.75;;
35257;SDS011;21385;50.878;8.050;2022-12-18T14:38:49;2.97;;;2.75;;
35257;SDS011;21385;50.878;8.050;2022-12-18T14:41:18;3.40;;;3.10;;
35257;SDS011;21385;50.878;8.050;2022-12-18T14:43:45;4.50;;;3.60;;
35257;SDS011;21385;50.878;8.050;2022-12-18T14:49:24;4.28;;;3.95;;
35257;SDS011;21385;50.878;8.050;2022-12-18T14:51:55;5.10;;;3.17;;
35257;SDS011;21385;50.878;8.050;2022-12-18T14:54:25;4.32;;;3.30;;
35257;SDS011;21385;50.878;8.050;2022-12-18T15:00:04;4.75;;;4.32;;
35257;SDS011;21385;50.878;8.050;2022-12-18T15:02:31;7.57;;;4.65;;
35257;SDS011;21385;50.878;8.050;2022-12-18T15:05:00;4.82;;;4.47;;
35257;SDS011;21385;50.878;8.050;2022-12-18T15:07:47;4.13;;;3.80;;
35257;SDS011;21385;50.878;8.050;2022-12-18T15:13:05;8.75;;;4.25;;
35257;SDS011;21385;50.878;8.050;2022-12-18T15:18:03;8.27;;;2.85;;
35257;SDS011;21385;50.878;8.050;2022-12-18T15:20:41;4.30;;;2.83;;
35257;SDS011;21385;50.878;8.050;2022-12-18T15:25:39;5.80;;;3.92;;
35257;SDS011;21385;50.878;8.050;2022-12-18T15:28:19;3.28;;;2.92;;
35257;SDS011;21385;50.878;8.050;2022-12-18T15:33:37;2.83;;;2.58;;
35257;SDS011;21385;50.878;8.050;2022-12-18T15:36:09;3.28;;;3.08;;
35257;SDS011;21385;50.878;8.050;2022-12-18T15:38:36;3.53;;;3.10;;
35257;SDS011;21385;50.878;8.050;2022-12-18T15:41:02;3.75;;;3.50;;
35257;SDS011;21385;50.878;8.050;2022-12-18T15:43:28;5.53;;;4.15;;
35257;SDS011;21385;50.878;8.050;2022-12-18T15:46:11;3.33;;;3.10;;
35257;SDS011;21385;50.878;8.050;2022-12-18T15:48:40;3.83;;;3.40;;
35257;SDS011;21385;50.878;8.050;2022-12-18T15:51:11;2.67;;;2.47;;
35257;SDS011;21385;50.878;8.050;2022-12-18T15:54:01;4.63;;;4.07;;
35257;SDS011;21385;50.878;8.050;2022-12-18T15:56:29;4.47;;;4.13;;
35257;SDS011;21385;50.878;8.050;2022-12-18T15:59:17;5.20;;;3.60;;
35257;SDS011;21385;50.878;8.050;2022-12-18T16:01:45;5.47;;;2.63;;
35257;SDS011;21385;50.878;8.050;2022-12-18T16:04:13;4.82;;;4.40;;
35257;SDS011;21385;50.878;8.050;2022-12-18T16:06:41;12.35;;;3.78;;
35257;SDS011;21385;50.878;8.050;2022-12-18T16:09:06;6.15;;;4.88;;
35257;SDS011;21385;50.878;8.050;2022-12-18T16:11:33;2.35;;;2.25;;
35257;SDS011;21385;50.878;8.050;2022-12-18T16:16:33;5.63;;;4.15;;
35257;SDS011;21385;50.878;8.050;2022-12-18T16:18:58;4.15;;;3.78;;
35257;SDS011;21385;50.878;8.050;2022-12-18T16:21:24;6.00;;;5.45;;
35257;SDS011;21385;50.878;8.050;2022-12-18T16:23:49;3.47;;;3.30;;
35257;SDS011;21385;50.878;8.050;2022-12-18T16:26:15;3.47;;;3.20;;
35257;SDS011;21385;50.878;8.050;2022-12-18T16:28:41;4.15;;;3.85;;
35257;SDS011;21385;50.878;8.050;2022-12-18T16:31:10;5.70;;;4.28;;
35257;SDS011;21385;50.878;8.050;2022-12-18T16:33:36;3.78;;;3.50;;
35257;SDS011;21385;50.878;8.050;2022-12-18T16:36:02;3.60;;;3.35;;
35257;SDS011;21385;50.878;8.050;2022-12-18T16:38:28;4.22;;;3.97;;
35257;SDS011;21385;50.878;8.050;2022-12-18T16:40:53;4.38;;;3.97;;
35257;SDS011;21385;50.878;8.050;2022-12-18T16:43:42;6.38;;;3.83;;
35257;SDS011;21385;50.878;8.050;2022-12-18T16:46:08;3.17;;;3.03;;
35257;SDS011;21385;50.878;8.050;2022-12-18T16:48:33;5.60;;;5.10;;
35257;SDS011;21385;50.878;8.050;2022-12-18T16:51:00;4.18;;;3.78;;
35257;SDS011;21385;50.878;8.050;2022-12-18T16:53:27;4.10;;;3.88;;
35257;SDS011;21385;50.878;8.050;2022-12-18T16:55:56;5.45;;;5.00;;
35257;SDS011;21385;50.878;8.050;2022-12-18T16:58:21;8.15;;;5.20;;
35257;SDS011;21385;50.878;8.050;2022-12-18T17:00:47;5.75;;;5.35;;
35257;SDS011;21385;50.878;8.050;2022-12-18T17:03:12;5.97;;;3.75;;
35257;SDS011;21385;50.878;8.050;2022-12-18T17:05:38;3.33;;;3.03;;
35257;SDS011;21385;50.878;8.050;2022-12-18T17:08:04;2.83;;;2.72;;
35257;SDS011;21385;50.878;8.050;2022-12-18T17:10:29;2.75;;;2.55;;
35257;SDS011;21385;50.878;8.050;2022-12-18T17:12:55;2.97;;;2.88;;
35257;SDS011;21385;50.878;8.050;2022-12-18T17:15:20;5.38;;;4.82;;
35257;SDS011;21385;50.878;8.050;2022-12-18T17:17:46;4.10;;;3.80;;
35257;SDS011;21385;50.878;8.050;2022-12-18T17:20:12;3.28;;;2.97;;